Flight Track Log - Related Links

Times and Time Zones

All times are in EDT time to prevent confusion due to time zone crossing. See the EJA982 flight status page for this flight to view local times or setup timezone preferences in your user account.

Time Position Orientation Groundspeed Altitude Reporting Facility
EDT Latitude Longitude Course Direction KTS MPH feet Rate Location/Type
Sat 09:45:02 AM 40.8333 -74.1000 262° West 181 208 1,100  Level New York TRACON
Sat 09:47:14 AM 40.8167 -74.2533 262° West 199 229 3,900 1,523 Climbing New York Center
Sat 09:48:15 AM 40.8225 -74.3358 275° West 227 261 6,000 2,727 Climbing New York Center
Sat 09:49:15 AM 40.8214 -74.4400 269° West 260 299 9,400 2,542 Climbing New York Center
Sat 09:50:13 AM 40.8183 -74.5358 268° West 283 326 11,000 1,729 Climbing New York Center
Sat 09:51:13 AM 40.7975 -74.6636 258° West 325 374 12,800 1,884 Climbing New York Center
Sat 09:52:14 AM 40.7708 -74.7769 253° West 359 413 14,800 2,016 Climbing New York Center
Sat 09:53:15 AM 40.7367 -74.9175 252° West 364 419 16,900 1,966 Climbing New York Center
Sat 09:54:13 AM 40.7097 -75.0336 253° West 370 426 18,700 1,664 Climbing New York Center
Sat 09:55:14 AM 40.6778 -75.1656 252° West 380 437 20,200 1,438 Climbing New York Center
Sat 09:56:14 AM 40.6456 -75.3031 253° West 385 443 21,600 1,388 Climbing New York Center
Sat 09:57:15 AM 40.6108 -75.4431 252° West 397 457 23,000 1,438 Climbing New York Center
Sat 09:58:15 AM 40.5739 -75.5853 251° West 402 463 24,500 1,438 Climbing New York Center
Sat 09:59:16 AM 40.5386 -75.7331 253° West 414 476 25,900 1,311 Climbing New York Center
Sat 10:00:14 AM 40.5011 -75.8806 252° West 420 483 27,100 1,261 Climbing New York Center
Sat 10:01:15 AM 40.4539 -76.0489 250° West 438 504 28,400 1,140 Climbing New York Center
Sat 10:02:15 AM 40.4158 -76.2014 252° West 443 510 29,400 1,091 Climbing New York Center
Sat 10:03:16 AM 40.3769 -76.3644 253° West 455 524 30,600 1,412 Climbing New York Center
Sat 10:04:14 AM 40.3339 -76.5217 250° West 460 529 32,200 1,563 Climbing New York Center
Sat 10:05:15 AM 40.3219 -76.6814 264° West 455 524 33,700 1,686 Climbing New York Center
Sat 10:06:15 AM 40.3161 -76.8389 267° West 442 509 35,600 1,950 Climbing New York Center
Sat 10:07:15 AM 40.3081 -76.9906 266° West 437 503 37,600 1,686 Climbing New York Center
Sat 10:08:16 AM 40.3022 -77.1397 267° West 431 496 39,000 966 Climbing New York Center
Sat 10:09:13 AM 40.2978 -77.2592 267° West 419 482 39,500 623 Climbing New York Center
Sat 10:11:19 AM 40.2872 -77.6189 268° West 426 490 40,900 677 Climbing Cleveland Center
Sat 10:12:19 AM 40.2786 -77.7825 266° West 436 502 41,600 750 Climbing Cleveland Center
Sat 10:13:19 AM 40.2681 -77.9436 265° West 447 514 42,400 700 Climbing Cleveland Center
Sat 10:14:19 AM 40.2611 -78.1044 267° West 447 514 43,000 300 Climbing Cleveland Center
Sat 10:15:19 AM 40.2522 -78.2681 266° West 447 514 43,000  Level Cleveland Center
Sat 10:16:19 AM 40.2428 -78.4342 266° West 452 520 43,000  Level Cleveland Center
Sat 10:17:19 AM 40.2356 -78.6058 267° West 465 535 43,000  Level Cleveland Center
Sat 10:18:19 AM 40.2258 -78.7803 266° West 476 548 43,000  Level Cleveland Center
Sat 10:19:19 AM 40.2161 -78.9517 266° West 481 554 43,000  Level Cleveland Center
Sat 10:20:19 AM 40.2058 -79.1286 266° West 481 554 43,000  Level Cleveland Center
Sat 10:21:19 AM 40.1956 -79.3031 266° West 481 554 43,000  Level Cleveland Center
Sat 10:22:19 AM 40.1889 -79.4769 267° West 481 554 43,000  Level Cleveland Center
Sat 10:23:19 AM 40.1800 -79.6267 266° West 481 554 43,000  Level Cleveland Center
Sat 10:24:19 AM 40.1686 -79.7981 265° West 476 548 43,000  Level Cleveland Center
Sat 10:25:19 AM 40.1572 -79.9664 265° West 476 548 43,000  Level Cleveland Center
Sat 10:26:19 AM 40.1414 -80.1622 264° West 488 562 43,000  Level Cleveland Center
Sat 10:28:09 AM 40.1242 -80.4525 266° West 479 551 43,000  Level Indianapolis Center
Sat 10:29:11 AM 40.1111 -80.6253 264° West 474 545 43,000  Level Indianapolis Center
Sat 10:30:13 AM 40.0994 -80.7967 265° West 471 542 43,000  Level Indianapolis Center
Sat 10:31:14 AM 40.0844 -80.9986 265° West 472 543 43,000  Level Indianapolis Center
Sat 10:32:16 AM 40.0711 -81.1711 264° West 473 544 43,000  Level Indianapolis Center
Sat 10:33:18 AM 40.0583 -81.3442 265° West 472 543 43,000  Level Indianapolis Center
Sat 10:34:19 AM 40.0447 -81.5164 264° West 472 543 43,000  Level Indianapolis Center
Sat 10:35:21 AM 40.0314 -81.6897 264° West 474 545 43,000  Level Indianapolis Center
Sat 10:36:23 AM 40.0186 -81.8544 264° West 476 548 43,000  Level Indianapolis Center
Sat 10:37:24 AM 40.0036 -82.0267 264° West 475 547 43,000  Level Indianapolis Center
Sat 10:38:26 AM 39.9878 -82.2281 264° West 475 547 43,000  Level Indianapolis Center
Sat 10:39:28 AM 39.9728 -82.4006 264° West 474 545 43,000  Level Indianapolis Center
Sat 10:40:29 AM 39.9583 -82.5725 264° West 474 545 43,000  Level Indianapolis Center
Sat 10:41:31 AM 39.9425 -82.7456 263° West 477 549 43,000  Level Indianapolis Center
Sat 10:42:32 AM 39.9264 -82.9181 263° West 476 548 43,000  Level Indianapolis Center
Sat 10:43:34 AM 39.9111 -83.0906 263° West 475 547 43,000  Level Indianapolis Center
Sat 10:44:36 AM 39.8953 -83.2633 263° West 478 550 43,000  Level Indianapolis Center
Sat 10:45:37 AM 39.8767 -83.4581 263° West 479 551 43,000  Level Indianapolis Center
Sat 10:46:39 AM 39.8603 -83.6289 263° West 478 550 43,000  Level Indianapolis Center
Sat 10:47:41 AM 39.8433 -83.7981 263° West 476 548 43,000  Level Indianapolis Center
Sat 10:48:42 AM 39.8256 -83.9689 262° West 474 545 43,000  Level Indianapolis Center
Sat 10:49:44 AM 39.8092 -84.1392 263° West 473 544 43,000  Level Indianapolis Center
Sat 10:50:46 AM 39.7908 -84.3108 262° West 474 545 43,000  Level Indianapolis Center
Sat 10:51:47 AM 39.7733 -84.4819 262° West 474 545 43,000  Level Indianapolis Center
Sat 10:52:49 AM 39.7558 -84.6531 262° West 473 544 43,000  Level Indianapolis Center
Sat 10:53:51 AM 39.7333 -84.8531 262° West 477 549 43,000  Level Indianapolis Center
Sat 10:54:53 AM 39.7169 -85.0036 262° West 480 552 43,000  Level Indianapolis Center
Sat 10:55:54 AM 39.7000 -85.1750 263° West 480 552 43,000  Level Indianapolis Center
Sat 10:56:56 AM 39.6761 -85.3786 261° West 476 548 43,000  Level Indianapolis Center
Sat 10:57:58 AM 39.6569 -85.5464 262° West 471 542 43,000  Level Indianapolis Center
Sat 10:58:59 AM 39.6386 -85.7156 262° West 473 544 43,000  Level Indianapolis Center
Sat 11:00:01 AM 39.6181 -85.8842 261° West 472 543 43,000  Level Indianapolis Center
Sat 11:01:03 AM 39.5978 -86.0536 261° West 473 544 43,000  Level Indianapolis Center
Sat 11:02:05 AM 39.5756 -86.2264 261° West 477 549 43,000  Level Indianapolis Center
Sat 11:03:06 AM 39.5558 -86.4011 262° West 480 552 43,000  Level Indianapolis Center
Sat 11:04:08 AM 39.5350 -86.5733 261° West 479 551 43,000  Level Indianapolis Center
Sat 11:05:10 AM 39.5139 -86.7442 261° West 481 554 43,000  Level Indianapolis Center
Sat 11:06:12 AM 39.4933 -86.9131 261° West 476 548 43,000  Level Indianapolis Center
Sat 11:07:13 AM 39.4686 -87.1128 261° West 468 539 43,000  Level Indianapolis Center
Sat 11:08:15 AM 39.4472 -87.2778 261° West 467 537 43,000  Level Indianapolis Center
Sat 11:09:17 AM 39.4247 -87.4408 260° West 463 533 43,000  Level Indianapolis Center
Sat 11:10:19 AM 39.4033 -87.6061 261° West 465 535 43,000  Level Indianapolis Center
Sat 11:11:20 AM 39.3811 -87.7717 260° West 467 537 43,000  Level Indianapolis Center
Sat 11:12:22 AM 39.3583 -87.9414 260° West 469 540 43,000  Level Indianapolis Center
Sat 11:13:24 AM 39.3350 -88.1089 260° West 472 543 43,000  Level Indianapolis Center
Sat 11:13:53 AM 39.3200 -88.2103 259° West 470 541 43,000  Level Kansas City Center
Sat 11:14:26 AM 39.3119 -88.2744 261° West 470 541 43,000  Level Indianapolis Center
Sat 11:14:57 AM 39.2975 -88.3758 260° West 469 540 43,000  Level Kansas City Center
Sat 11:15:57 AM 39.2739 -88.5428 260° West 470 541 43,000  Level Kansas City Center
Sat 11:17:01 AM 39.2494 -88.7108 259° West 464 534 43,000  Level Kansas City Center
Sat 11:18:02 AM 39.2256 -88.8731 259° West 463 533 43,000  Level Kansas City Center
Sat 11:19:03 AM 39.2053 -89.0347 261° West 461 531 43,000  Level Kansas City Center
Sat 11:20:07 AM 39.1817 -89.1933 259° West 456 525 43,000  Level Kansas City Center
Sat 11:21:08 AM 39.1542 -89.3803 259° West 452 520 43,000  Level Kansas City Center
Sat 11:22:09 AM 39.1292 -89.5514 259° West 453 521 43,000  Level Kansas City Center
Sat 11:23:12 AM 39.1058 -89.7086 259° West 450 518 43,000  Level Kansas City Center
Sat 11:24:14 AM 39.0817 -89.8647 259° West 447 514 43,000  Level Kansas City Center
Sat 11:25:17 AM 39.0589 -90.0128 259° West 451 519 43,000  Level Kansas City Center
Sat 11:26:18 AM 39.0339 -90.1700 258° West 452 520 43,000  Level Kansas City Center
Sat 11:27:18 AM 39.0044 -90.3617 259° West 459 528 43,000  Level Kansas City Center
Sat 11:28:22 AM 38.9794 -90.5222 259° West 464 534 43,000  Level Kansas City Center
Sat 11:29:22 AM 38.9531 -90.6828 258° West 465 535 43,000  Level Kansas City Center
Sat 11:30:26 AM 38.9281 -90.8381 258° West 455 524 43,000  Level Kansas City Center
Sat 11:31:27 AM 38.8986 -91.0281 259° West 455 524 43,000  Level Kansas City Center
Sat 11:32:31 AM 38.8722 -91.1858 258° West 456 525 43,000  Level Kansas City Center
Sat 11:33:32 AM 38.8467 -91.3425 258° West 452 520 43,000  Level Kansas City Center
Sat 11:34:33 AM 38.8208 -91.5006 258° West 454 522 43,000  Level Kansas City Center
Sat 11:35:36 AM 38.7933 -91.6575 257° West 453 521 43,000  Level Kansas City Center
Sat 11:36:37 AM 38.7636 -91.8336 258° West 451 519 43,000  Level Kansas City Center
Sat 11:37:40 AM 38.7356 -91.9892 257° West 449 517 43,000  Level Kansas City Center
Sat 11:38:40 AM 38.7086 -92.1469 258° West 452 520 43,000  Level Kansas City Center
Sat 11:39:45 AM 38.6808 -92.3042 257° West 454 522 43,000  Level Kansas City Center
Sat 11:40:46 AM 38.6461 -92.4917 257° West 453 521 43,000  Level Kansas City Center
Sat 11:41:47 AM 38.6178 -92.6503 257° West 454 522 43,000  Level Kansas City Center
Sat 11:42:50 AM 38.5889 -92.8100 257° West 460 529 43,000  Level Kansas City Center
Sat 11:43:51 AM 38.5603 -92.9694 257° West 461 531 43,000  Level Kansas City Center
Sat 11:44:55 AM 38.5311 -93.1289 257° West 462 532 43,000  Level Kansas City Center
Sat 11:45:56 AM 38.5031 -93.2869 257° West 458 527 43,000  Level Kansas City Center
Sat 11:46:59 AM 38.4664 -93.4800 256° West 464 534 43,000  Level Kansas City Center
Sat 11:48:00 AM 38.4350 -93.6411 256° West 467 537 43,000  Level Kansas City Center
Sat 11:49:04 AM 38.4044 -93.8044 257° West 471 542 43,000  Level Kansas City Center
Sat 11:50:04 AM 38.3728 -93.9661 256° West 471 542 43,000  Level Kansas City Center
Sat 11:51:05 AM 38.3383 -94.1472 256° West 469 540 43,000  Level Kansas City Center
Sat 11:52:08 AM 38.3081 -94.3036 256° West 471 542 43,000  Level Kansas City Center
Sat 11:53:10 AM 38.2778 -94.4600 256° West 473 544 43,000  Level Kansas City Center
Sat 11:54:13 AM 38.2472 -94.6431 258° West 474 545 43,000  Level Kansas City Center
Sat 11:55:14 AM 38.2222 -94.7983 258° West 471 542 43,000  Level Kansas City Center
Sat 11:56:16 AM 38.1947 -94.9783 259° West 467 537 43,000  Level Kansas City Center
Sat 11:57:19 AM 38.1686 -95.1367 258° West 471 542 43,000  Level Kansas City Center
Sat 11:58:19 AM 38.1381 -95.3214 258° West 476 548 43,000  Level Kansas City Center
Sat 11:59:23 AM 38.1103 -95.4783 257° West 474 545 43,000  Level Kansas City Center
Sat 12:00:24 PM 38.0786 -95.6636 258° West 479 551 43,000  Level Kansas City Center
Sat 12:01:27 PM 38.0508 -95.8225 258° West 482 555 43,000  Level Kansas City Center
Sat 12:02:29 PM 38.0242 -95.9831 258° West 485 558 43,000  Level Kansas City Center
Sat 12:03:31 PM 37.9967 -96.1528 258° West 485 558 43,000  Level Kansas City Center
Sat 12:04:31 PM 37.9678 -96.3208 258° West 486 559 43,000  Level Kansas City Center
Sat 12:05:34 PM 37.9350 -96.5194 258° West 482 555 43,000  Level Kansas City Center
Sat 12:06:37 PM 37.9069 -96.6839 258° West 479 551 43,000  Level Kansas City Center
Sat 12:07:37 PM 37.8786 -96.8497 258° West 481 554 43,000  Level Kansas City Center
Sat 12:08:41 PM 37.8497 -97.0147 258° West 481 554 43,000  Level Kansas City Center
Sat 12:09:42 PM 37.8203 -97.1775 257° West 477 549 43,000  Level Kansas City Center
Sat 12:10:43 PM 37.7903 -97.3408 257° West 475 547 43,000  Level Kansas City Center
Sat 12:11:47 PM 37.7583 -97.5122 257° West 474 545 43,000  Level Kansas City Center
Sat 12:12:48 PM 37.7272 -97.6756 257° West 477 549 43,000  Level Kansas City Center
Sat 12:13:51 PM 37.6900 -97.8714 257° West 479 551 43,000  Level Kansas City Center
Sat 12:14:52 PM 37.6606 -98.0339 257° West 475 547 43,000  Level Kansas City Center
Sat 12:15:56 PM 37.6278 -98.1944 256° West 475 547 43,000  Level Kansas City Center
Sat 12:16:57 PM 37.5953 -98.3567 256° West 475 547 43,000  Level Kansas City Center
Sat 12:17:58 PM 37.5633 -98.5167 256° West 473 544 43,000  Level Kansas City Center
Sat 12:18:59 PM 37.5317 -98.6767 256° West 472 543 43,000  Level Kansas City Center
Sat 12:20:02 PM 37.4986 -98.8356 255° West 470 541 43,000  Level Kansas City Center
Sat 12:21:02 PM 37.4600 -99.0256 256° West 467 537 43,000  Level Kansas City Center
Sat 12:22:06 PM 37.4275 -99.1842 256° West 468 539 43,000  Level Kansas City Center
Sat 12:23:09 PM 37.3933 -99.3411 255° West 466 536 43,000  Level Kansas City Center
Sat 12:24:10 PM 37.3600 -99.5078 256° West 464 534 43,000  Level Kansas City Center
Sat 12:25:13 PM 37.3281 -99.6592 255° West 466 536 43,000  Level Kansas City Center
Sat 12:26:14 PM 37.2906 -99.8375 255° West 470 541 43,000  Level Kansas City Center
Sat 12:27:14 PM 37.2581 -99.9900 255° West 471 542 43,000  Level Kansas City Center
Sat 12:28:18 PM 37.2189 -100.1678 255° West 471 542 43,000  Level Kansas City Center
Sat 12:29:19 PM 37.1864 -100.3200 255° West 471 542 43,000  Level Kansas City Center
Sat 12:30:22 PM 37.1472 -100.4983 255° West 472 543 43,000  Level Kansas City Center
Sat 12:31:23 PM 37.1142 -100.6506 255° West 472 543 43,000  Level Kansas City Center
Sat 12:32:24 PM 37.0808 -100.8028 255° West 472 543 43,000  Level Kansas City Center
Sat 12:33:27 PM 37.0403 -100.9786 254° West 470 541 43,000  Level Kansas City Center
Sat 12:34:28 PM 36.9964 -101.1256 250° West 470 541 43,000  Level Kansas City Center
Sat 12:35:31 PM 36.9433 -101.2947 249° West 468 539 43,000  Level Kansas City Center
Sat 12:36:32 PM 36.8986 -101.4383 249° West 465 535 43,000  Level Kansas City Center
Sat 12:37:36 PM 36.8458 -101.6047 248° West 462 532 43,000  Level Kansas City Center
Sat 12:38:16 PM 36.8158 -101.6994 248° West 461 531 43,000  Level Albuquerque Center
Sat 12:39:18 PM 36.7706 -101.8411 248° West 460 529 43,000  Level Albuquerque Center
Sat 12:40:20 PM 36.7183 -102.0053 248° West 458 527 43,000  Level Albuquerque Center
Sat 12:41:22 PM 36.6725 -102.1469 248° West 458 527 43,000  Level Albuquerque Center
Sat 12:42:24 PM 36.6217 -102.3017 248° West 462 532 43,000  Level Albuquerque Center
Sat 12:43:26 PM 36.5739 -102.4486 248° West 462 532 43,000  Level Albuquerque Center
Sat 12:44:28 PM 36.5164 -102.6250 248° West 461 531 43,000  Level Albuquerque Center
Sat 12:45:30 PM 36.4675 -102.7728 248° West 465 535 43,000  Level Albuquerque Center
Sat 12:46:32 PM 36.4172 -102.9286 248° West 463 533 43,000  Level Albuquerque Center
Sat 12:47:34 PM 36.3672 -103.0769 247° West 462 532 43,000  Level Albuquerque Center
Sat 12:48:36 PM 36.3175 -103.2264 248° West 465 535 43,000  Level Albuquerque Center
Sat 12:49:38 PM 36.2678 -103.3769 248° West 468 539 43,000  Level Albuquerque Center
Sat 12:50:40 PM 36.2167 -103.5269 247° West 470 541 43,000  Level Albuquerque Center
Sat 12:51:42 PM 36.1661 -103.6775 247° West 471 542 43,000  Level Albuquerque Center
Sat 12:52:44 PM 36.1061 -103.8506 247° West 468 539 43,000  Level Albuquerque Center
Sat 12:53:46 PM 36.0558 -103.9986 247° West 467 537 43,000 -919 Level Albuquerque Center
Sat 12:54:48 PM 36.0042 -104.1481 247° West 470 541 41,100 -2,129 Descending Albuquerque Center
Sat 12:55:50 PM 35.9539 -104.2925 247° West 462 532 38,600 -2,419 Descending Albuquerque Center
Sat 12:56:52 PM 35.9033 -104.4375 247° West 459 528 36,100 -2,129 Descending Albuquerque Center
Sat 12:57:54 PM 35.8514 -104.5847 247° West 465 535 34,200 -2,371 Descending Albuquerque Center
Sat 12:58:56 PM 35.7911 -104.7561 247° West 466 536 31,200 -2,661 Descending Albuquerque Center
Sat 12:59:58 PM 35.7389 -104.9056 247° West 471 542 28,700 -2,419 Descending Albuquerque Center
Sat 01:01:00 PM 35.6825 -105.0528 245° Southwest 472 543 26,200 -2,468 Descending Albuquerque Center
Sat 01:02:02 PM 35.6197 -105.1906 241° Southwest 464 534 23,600 -2,419 Descending Albuquerque Center
Sat 01:03:04 PM 35.5603 -105.3297 242° Southwest 460 529 21,200 -2,226 Descending Albuquerque Center
Sat 01:04:06 PM 35.5003 -105.4622 241° Southwest 448 516 19,000 -2,081 Descending Albuquerque Center
Sat 01:05:08 PM 35.4400 -105.5900 240° Southwest 437 503 16,900 -2,274 Descending Albuquerque Center
Sat 01:06:10 PM 35.4219 -105.7406 262° West 409 471 14,300 -2,323 Descending Albuquerque Center
Sat 01:07:12 PM 35.4517 -105.8617 287° West 383 441 12,100 -1,597 Descending Albuquerque Center
Sat 01:08:14 PM 35.5117 -105.9383 314° West 331 381 11,000 -581 Descending Albuquerque Center
Sat 01:09:16 PM 35.5678 -105.9856 326° Northwest 258 297 10,900  Descending Albuquerque Center
Sat 01:10:18 PM 35.6228 -106.0197 333° Northwest 228 262 11,000  Climbing Albuquerque Center
Sat 01:11:20 PM 35.6781 -106.0461 339° North 218 251 10,900  Descending Albuquerque Center
Sat 01:12:22 PM 35.7306 -106.0575 350° North 220 253 11,000 -145 Climbing Albuquerque Center
Sat 01:13:24 PM 35.7344 -105.9981 85° East 224 258 10,600 -1,258 Descending Albuquerque Center
Sat 01:14:26 PM 35.6869 -106.0283 207° Southwest 210 242 8,400 -1,790 Descending Albuquerque Center
Sat 01:15:28 PM 35.6444 -106.0683 217° Southwest 178 205 6,900 -1,452 Descending Albuquerque Center

Login

Don't have an account? Register now (free) for customized features, flight alerts, and more!